sensor_id;sensor_type;location;lat;lon;timestamp;P1;durP1;ratioP1;P2;durP2;ratioP2
35364;SDS011;21464;48.112;11.530;2022-08-21T00:01:48;2.05;;;1.63;;
35364;SDS011;21464;48.112;11.530;2022-08-21T00:04:15;2.08;;;1.88;;
35364;SDS011;21464;48.112;11.530;2022-08-21T00:06:41;4.68;;;1.83;;
35364;SDS011;21464;48.112;11.530;2022-08-21T00:09:08;3.45;;;1.70;;
35364;SDS011;21464;48.112;11.530;2022-08-21T00:11:35;2.20;;;2.08;;
35364;SDS011;21464;48.112;11.530;2022-08-21T00:14:03;1.70;;;1.60;;
35364;SDS011;21464;48.112;11.530;2022-08-21T00:16:30;1.60;;;1.50;;
35364;SDS011;21464;48.112;11.530;2022-08-21T00:18:56;1.98;;;1.80;;
35364;SDS011;21464;48.112;11.530;2022-08-21T00:21:23;2.15;;;1.88;;
35364;SDS011;21464;48.112;11.530;2022-08-21T00:23:51;1.55;;;1.45;;
35364;SDS011;21464;48.112;11.530;2022-08-21T00:26:17;1.73;;;1.63;;
35364;SDS011;21464;48.112;11.530;2022-08-21T00:28:43;1.83;;;1.73;;
35364;SDS011;21464;48.112;11.530;2022-08-21T00:31:12;1.83;;;1.60;;
35364;SDS011;21464;48.112;11.530;2022-08-21T00:33:38;1.70;;;1.40;;
35364;SDS011;21464;48.112;11.530;2022-08-21T00:36:04;1.90;;;1.80;;
35364;SDS011;21464;48.112;11.530;2022-08-21T00:38:31;1.67;;;1.58;;
35364;SDS011;21464;48.112;11.530;2022-08-21T00:40:58;1.70;;;1.60;;
35364;SDS011;21464;48.112;11.530;2022-08-21T00:43:27;1.58;;;1.58;;
35364;SDS011;21464;48.112;11.530;2022-08-21T00:45:56;1.48;;;1.38;;
35364;SDS011;21464;48.112;11.530;2022-08-21T00:48:23;1.40;;;1.40;;
35364;SDS011;21464;48.112;11.530;2022-08-21T00:50:57;2.60;;;1.60;;
35364;SDS011;21464;48.112;11.530;2022-08-21T00:53:35;1.65;;;1.55;;
35364;SDS011;21464;48.112;11.530;2022-08-21T00:56:04;1.88;;;1.60;;
35364;SDS011;21464;48.112;11.530;2022-08-21T00:58:32;1.80;;;1.70;;
35364;SDS011;21464;48.112;11.530;2022-08-21T01:01:03;1.92;;;1.50;;
35364;SDS011;21464;48.112;11.530;2022-08-21T01:03:30;1.55;;;1.45;;
35364;SDS011;21464;48.112;11.530;2022-08-21T01:05:57;1.50;;;1.50;;
35364;SDS011;21464;48.112;11.530;2022-08-21T01:08:23;1.65;;;1.55;;
35364;SDS011;21464;48.112;11.530;2022-08-21T01:10:50;2.00;;;1.70;;
35364;SDS011;21464;48.112;11.530;2022-08-21T01:13:18;2.22;;;1.60;;
35364;SDS011;21464;48.112;11.530;2022-08-21T01:15:46;1.60;;;1.50;;
35364;SDS011;21464;48.112;11.530;2022-08-21T01:18:14;1.80;;;1.70;;
35364;SDS011;21464;48.112;11.530;2022-08-21T01:20:44;1.55;;;1.48;;
35364;SDS011;21464;48.112;11.530;2022-08-21T01:23:22;2.08;;;1.88;;
35364;SDS011;21464;48.112;11.530;2022-08-21T01:25:48;1.92;;;1.83;;
35364;SDS011;21464;48.112;11.530;2022-08-21T01:28:14;1.90;;;1.65;;
35364;SDS011;21464;48.112;11.530;2022-08-21T01:30:41;1.58;;;1.48;;
35364;SDS011;21464;48.112;11.530;2022-08-21T01:33:09;1.77;;;1.67;;
35364;SDS011;21464;48.112;11.530;2022-08-21T01:35:35;1.75;;;1.48;;
35364;SDS011;21464;48.112;11.530;2022-08-21T01:38:02;1.80;;;1.70;;
35364;SDS011;21464;48.112;11.530;2022-08-21T01:40:29;1.67;;;1.58;;
35364;SDS011;21464;48.112;11.530;2022-08-21T01:42:55;1.70;;;1.60;;
35364;SDS011;21464;48.112;11.530;2022-08-21T01:45:21;2.75;;;1.60;;
35364;SDS011;21464;48.112;11.530;2022-08-21T01:47:48;1.50;;;1.40;;
35364;SDS011;21464;48.112;11.530;2022-08-21T01:50:15;2.08;;;1.60;;
35364;SDS011;21464;48.112;11.530;2022-08-21T01:52:43;1.48;;;1.40;;
35364;SDS011;21464;48.112;11.530;2022-08-21T01:55:09;1.65;;;1.55;;
35364;SDS011;21464;48.112;11.530;2022-08-21T01:57:36;2.67;;;1.63;;
35364;SDS011;21464;48.112;11.530;2022-08-21T02:00:07;1.40;;;1.40;;
35364;SDS011;21464;48.112;11.530;2022-08-21T02:02:39;1.95;;;1.50;;
35364;SDS011;21464;48.112;11.530;2022-08-21T02:05:07;1.80;;;1.70;;
35364;SDS011;21464;48.112;11.530;2022-08-21T02:07:41;1.67;;;1.55;;
35364;SDS011;21464;48.112;11.530;2022-08-21T02:10:13;1.60;;;1.50;;
35364;SDS011;21464;48.112;11.530;2022-08-21T02:12:41;1.55;;;1.50;;
35364;SDS011;21464;48.112;11.530;2022-08-21T02:15:07;1.67;;;1.58;;
35364;SDS011;21464;48.112;11.530;2022-08-21T02:17:46;1.70;;;1.60;;
35364;SDS011;21464;48.112;11.530;2022-08-21T02:20:16;1.58;;;1.50;;
35364;SDS011;21464;48.112;11.530;2022-08-21T02:22:57;1.60;;;1.50;;
35364;SDS011;21464;48.112;11.530;2022-08-21T02:25:24;2.15;;;1.70;;
35364;SDS011;21464;48.112;11.530;2022-08-21T02:27:51;1.90;;;1.70;;
35364;SDS011;21464;48.112;11.530;2022-08-21T02:30:19;1.83;;;1.73;;
35364;SDS011;21464;48.112;11.530;2022-08-21T02:32:50;2.60;;;1.60;;
35364;SDS011;21464;48.112;11.530;2022-08-21T02:35:17;2.53;;;1.70;;
35364;SDS011;21464;48.112;11.530;2022-08-21T02:37:45;1.73;;;1.63;;
35364;SDS011;21464;48.112;11.530;2022-08-21T02:40:21;1.95;;;1.70;;
35364;SDS011;21464;48.112;11.530;2022-08-21T02:42:49;2.47;;;1.80;;
35364;SDS011;21464;48.112;11.530;2022-08-21T02:45:16;1.55;;;1.45;;
35364;SDS011;21464;48.112;11.530;2022-08-21T02:47:47;1.70;;;1.60;;
35364;SDS011;21464;48.112;11.530;2022-08-21T02:50:18;1.70;;;1.60;;
35364;SDS011;21464;48.112;11.530;2022-08-21T02:53:06;1.60;;;1.50;;
35364;SDS011;21464;48.112;11.530;2022-08-21T02:55:34;1.75;;;1.65;;
35364;SDS011;21464;48.112;11.530;2022-08-21T02:58:02;2.22;;;1.50;;
35364;SDS011;21464;48.112;11.530;2022-08-21T03:00:31;1.80;;;1.70;;
35364;SDS011;21464;48.112;11.530;2022-08-21T03:02:58;2.28;;;1.55;;
35364;SDS011;21464;48.112;11.530;2022-08-21T03:05:26;1.67;;;1.58;;
35364;SDS011;21464;48.112;11.530;2022-08-21T03:07:54;2.08;;;1.70;;
35364;SDS011;21464;48.112;11.530;2022-08-21T03:10:21;1.73;;;1.63;;
35364;SDS011;21464;48.112;11.530;2022-08-21T03:12:48;2.15;;;1.90;;
35364;SDS011;21464;48.112;11.530;2022-08-21T03:15:16;2.20;;;2.05;;
35364;SDS011;21464;48.112;11.530;2022-08-21T03:17:43;1.80;;;1.70;;
35364;SDS011;21464;48.112;11.530;2022-08-21T03:20:10;2.00;;;1.80;;
35364;SDS011;21464;48.112;11.530;2022-08-21T03:22:36;1.42;;;1.38;;
35364;SDS011;21464;48.112;11.530;2022-08-21T03:25:03;3.30;;;1.90;;
35364;SDS011;21464;48.112;11.530;2022-08-21T03:27:29;2.08;;;1.90;;
35364;SDS011;21464;48.112;11.530;2022-08-21T03:29:57;1.98;;;1.80;;
35364;SDS011;21464;48.112;11.530;2022-08-21T03:32:23;2.95;;;1.67;;
35364;SDS011;21464;48.112;11.530;2022-08-21T03:34:49;2.10;;;2.00;;
35364;SDS011;21464;48.112;11.530;2022-08-21T03:37:16;2.40;;;2.20;;
35364;SDS011;21464;48.112;11.530;2022-08-21T03:39:43;2.60;;;1.88;;
35364;SDS011;21464;48.112;11.530;2022-08-21T03:42:10;2.22;;;2.03;;
35364;SDS011;21464;48.112;11.530;2022-08-21T03:44:37;2.10;;;2.00;;
35364;SDS011;21464;48.112;11.530;2022-08-21T03:47:05;4.00;;;2.22;;
35364;SDS011;21464;48.112;11.530;2022-08-21T03:49:32;1.75;;;1.65;;
35364;SDS011;21464;48.112;11.530;2022-08-21T03:51:59;1.90;;;1.80;;
35364;SDS011;21464;48.112;11.530;2022-08-21T03:54:26;2.30;;;2.10;;
35364;SDS011;21464;48.112;11.530;2022-08-21T03:56:52;2.17;;;2.08;;
35364;SDS011;21464;48.112;11.530;2022-08-21T03:59:18;2.78;;;1.92;;
35364;SDS011;21464;48.112;11.530;2022-08-21T04:01:55;2.13;;;1.77;;
35364;SDS011;21464;48.112;11.530;2022-08-21T04:04:23;2.40;;;1.90;;
35364;SDS011;21464;48.112;11.530;2022-08-21T04:06:49;2.10;;;2.00;;
35364;SDS011;21464;48.112;11.530;2022-08-21T04:09:16;2.00;;;1.90;;
35364;SDS011;21464;48.112;11.530;2022-08-21T04:11:43;2.05;;;1.60;;
35364;SDS011;21464;48.112;11.530;2022-08-21T04:14:11;1.80;;;1.70;;
35364;SDS011;21464;48.112;11.530;2022-08-21T04:16:37;1.85;;;1.75;;
35364;SDS011;21464;48.112;11.530;2022-08-21T04:19:04;2.88;;;1.80;;
35364;SDS011;21464;48.112;11.530;2022-08-21T04:21:30;2.25;;;2.15;;
35364;SDS011;21464;48.112;11.530;2022-08-21T04:23:57;2.08;;;1.88;;
35364;SDS011;21464;48.112;11.530;2022-08-21T04:26:25;2.00;;;1.67;;
35364;SDS011;21464;48.112;11.530;2022-08-21T04:28:51;2.10;;;1.88;;
35364;SDS011;21464;48.112;11.530;2022-08-21T04:31:18;1.75;;;1.65;;
35364;SDS011;21464;48.112;11.530;2022-08-21T04:33:44;1.88;;;1.75;;
35364;SDS011;21464;48.112;11.530;2022-08-21T04:36:11;2.35;;;1.73;;
35364;SDS011;21464;48.112;11.530;2022-08-21T04:38:37;4.07;;;1.80;;
35364;SDS011;21464;48.112;11.530;2022-08-21T04:41:03;2.00;;;1.90;;
35364;SDS011;21464;48.112;11.530;2022-08-21T04:43:31;1.92;;;1.77;;
35364;SDS011;21464;48.112;11.530;2022-08-21T04:45:58;2.50;;;1.60;;
35364;SDS011;21464;48.112;11.530;2022-08-21T04:48:26;2.17;;;2.08;;
35364;SDS011;21464;48.112;11.530;2022-08-21T04:53:43;2.00;;;1.90;;
35364;SDS011;21464;48.112;11.530;2022-08-21T04:56:15;1.90;;;1.80;;
35364;SDS011;21464;48.112;11.530;2022-08-21T04:58:47;1.92;;;1.83;;
35364;SDS011;21464;48.112;11.530;2022-08-21T05:01:17;2.67;;;1.83;;
35364;SDS011;21464;48.112;11.530;2022-08-21T05:03:46;2.50;;;1.80;;
35364;SDS011;21464;48.112;11.530;2022-08-21T05:06:14;2.00;;;1.90;;
35364;SDS011;21464;48.112;11.530;2022-08-21T05:08:41;2.40;;;1.90;;
35364;SDS011;21464;48.112;11.530;2022-08-21T05:11:09;2.05;;;1.95;;
35364;SDS011;21464;48.112;11.530;2022-08-21T05:13:36;4.28;;;2.00;;
35364;SDS011;21464;48.112;11.530;2022-08-21T05:16:02;1.95;;;1.85;;
35364;SDS011;21464;48.112;11.530;2022-08-21T05:18:28;2.90;;;1.83;;
35364;SDS011;21464;48.112;11.530;2022-08-21T05:20:55;2.10;;;2.00;;
35364;SDS011;21464;48.112;11.530;2022-08-21T05:23:21;2.50;;;2.30;;
35364;SDS011;21464;48.112;11.530;2022-08-21T05:25:47;3.40;;;2.28;;
35364;SDS011;21464;48.112;11.530;2022-08-21T05:28:13;3.83;;;2.22;;
35364;SDS011;21464;48.112;11.530;2022-08-21T05:30:39;1.80;;;1.70;;
35364;SDS011;21464;48.112;11.530;2022-08-21T05:33:06;3.03;;;2.40;;
35364;SDS011;21464;48.112;11.530;2022-08-21T05:35:33;1.90;;;1.80;;
35364;SDS011;21464;48.112;11.530;2022-08-21T05:37:59;2.00;;;1.90;;
35364;SDS011;21464;48.112;11.530;2022-08-21T05:40:26;2.40;;;2.20;;
35364;SDS011;21464;48.112;11.530;2022-08-21T05:42:53;1.88;;;1.70;;
35364;SDS011;21464;48.112;11.530;2022-08-21T05:45:25;2.17;;;2.05;;
35364;SDS011;21464;48.112;11.530;2022-08-21T05:47:53;2.10;;;2.00;;
35364;SDS011;21464;48.112;11.530;2022-08-21T05:50:20;2.20;;;2.10;;
35364;SDS011;21464;48.112;11.530;2022-08-21T05:52:46;1.98;;;1.88;;
35364;SDS011;21464;48.112;11.530;2022-08-21T05:55:12;2.63;;;2.30;;
35364;SDS011;21464;48.112;11.530;2022-08-21T05:57:39;2.25;;;2.00;;
35364;SDS011;21464;48.112;11.530;2022-08-21T06:00:08;2.92;;;2.72;;
35364;SDS011;21464;48.112;11.530;2022-08-21T06:02:39;2.40;;;2.20;;
35364;SDS011;21464;48.112;11.530;2022-08-21T06:05:06;4.93;;;2.50;;
35364;SDS011;21464;48.112;11.530;2022-08-21T06:07:32;2.58;;;2.38;;
35364;SDS011;21464;48.112;11.530;2022-08-21T06:09:59;2.90;;;2.70;;
35364;SDS011;21464;48.112;11.530;2022-08-21T06:12:26;1.80;;;1.70;;
35364;SDS011;21464;48.112;11.530;2022-08-21T06:14:52;5.15;;;3.53;;
35364;SDS011;21464;48.112;11.530;2022-08-21T06:17:18;3.60;;;2.28;;
35364;SDS011;21464;48.112;11.530;2022-08-21T06:19:44;3.88;;;2.20;;
35364;SDS011;21464;48.112;11.530;2022-08-21T06:22:16;2.33;;;2.10;;
35364;SDS011;21464;48.112;11.530;2022-08-21T06:24:42;2.30;;;2.10;;
35364;SDS011;21464;48.112;11.530;2022-08-21T06:27:08;2.53;;;2.25;;
35364;SDS011;21464;48.112;11.530;2022-08-21T06:29:35;2.13;;;1.92;;
35364;SDS011;21464;48.112;11.530;2022-08-21T06:32:02;2.50;;;1.90;;
35364;SDS011;21464;48.112;11.530;2022-08-21T06:34:28;2.65;;;1.80;;
35364;SDS011;21464;48.112;11.530;2022-08-21T06:36:55;2.80;;;2.00;;
35364;SDS011;21464;48.112;11.530;2022-08-21T06:39:21;4.63;;;2.50;;
35364;SDS011;21464;48.112;11.530;2022-08-21T06:41:48;2.63;;;2.38;;
35364;SDS011;21464;48.112;11.530;2022-08-21T06:44:15;2.55;;;2.35;;
35364;SDS011;21464;48.112;11.530;2022-08-21T06:46:42;3.38;;;2.10;;
35364;SDS011;21464;48.112;11.530;2022-08-21T06:49:08;2.05;;;1.92;;
35364;SDS011;21464;48.112;11.530;2022-08-21T06:51:34;2.70;;;2.00;;
35364;SDS011;21464;48.112;11.530;2022-08-21T06:54:00;3.33;;;2.20;;
35364;SDS011;21464;48.112;11.530;2022-08-21T06:56:27;2.70;;;2.10;;
35364;SDS011;21464;48.112;11.530;2022-08-21T06:58:53;2.00;;;1.90;;
35364;SDS011;21464;48.112;11.530;2022-08-21T07:01:20;3.40;;;2.10;;
35364;SDS011;21464;48.112;11.530;2022-08-21T07:03:49;3.10;;;2.40;;
35364;SDS011;21464;48.112;11.530;2022-08-21T07:06:15;2.47;;;2.28;;
35364;SDS011;21464;48.112;11.530;2022-08-21T07:08:42;3.40;;;2.28;;
35364;SDS011;21464;48.112;11.530;2022-08-21T07:11:14;2.85;;;2.22;;
35364;SDS011;21464;48.112;11.530;2022-08-21T07:13:43;3.97;;;2.50;;
35364;SDS011;21464;48.112;11.530;2022-08-21T07:16:10;2.88;;;2.58;;
35364;SDS011;21464;48.112;11.530;2022-08-21T07:18:36;2.63;;;2.42;;
35364;SDS011;21464;48.112;11.530;2022-08-21T07:21:03;3.83;;;2.58;;
35364;SDS011;21464;48.112;11.530;2022-08-21T07:23:31;2.83;;;2.60;;
35364;SDS011;21464;48.112;11.530;2022-08-21T07:25:59;2.80;;;2.60;;
35364;SDS011;21464;48.112;11.530;2022-08-21T07:28:26;2.70;;;2.50;;
35364;SDS011;21464;48.112;11.530;2022-08-21T07:30:55;3.08;;;2.65;;
35364;SDS011;21464;48.112;11.530;2022-08-21T07:33:23;3.90;;;2.75;;
35364;SDS011;21464;48.112;11.530;2022-08-21T07:35:50;3.92;;;3.10;;
35364;SDS011;21464;48.112;11.530;2022-08-21T07:38:16;5.30;;;2.95;;
35364;SDS011;21464;48.112;11.530;2022-08-21T07:40:43;3.25;;;2.63;;
35364;SDS011;21464;48.112;11.530;2022-08-21T07:43:10;4.75;;;4.25;;
35364;SDS011;21464;48.112;11.530;2022-08-21T07:45:37;2.60;;;2.40;;
35364;SDS011;21464;48.112;11.530;2022-08-21T07:48:03;5.65;;;5.05;;
35364;SDS011;21464;48.112;11.530;2022-08-21T07:50:30;4.57;;;3.08;;
35364;SDS011;21464;48.112;11.530;2022-08-21T07:52:56;3.35;;;3.05;;
35364;SDS011;21464;48.112;11.530;2022-08-21T07:55:23;5.35;;;2.83;;
35364;SDS011;21464;48.112;11.530;2022-08-21T07:57:49;4.22;;;2.75;;
35364;SDS011;21464;48.112;11.530;2022-08-21T08:00:18;5.65;;;3.90;;
35364;SDS011;21464;48.112;11.530;2022-08-21T08:02:48;5.47;;;3.33;;
35364;SDS011;21464;48.112;11.530;2022-08-21T08:05:18;3.30;;;3.00;;
35364;SDS011;21464;48.112;11.530;2022-08-21T08:07:45;5.65;;;3.47;;
35364;SDS011;21464;48.112;11.530;2022-08-21T08:10:11;5.13;;;4.28;;
35364;SDS011;21464;48.112;11.530;2022-08-21T08:12:39;4.50;;;3.30;;
35364;SDS011;21464;48.112;11.530;2022-08-21T08:15:08;4.55;;;3.92;;
35364;SDS011;21464;48.112;11.530;2022-08-21T08:17:37;5.22;;;4.35;;
35364;SDS011;21464;48.112;11.530;2022-08-21T08:20:08;4.10;;;3.80;;
35364;SDS011;21464;48.112;11.530;2022-08-21T08:22:36;5.38;;;4.00;;
35364;SDS011;21464;48.112;11.530;2022-08-21T08:25:03;3.83;;;3.40;;
35364;SDS011;21464;48.112;11.530;2022-08-21T08:27:30;4.85;;;4.25;;
35364;SDS011;21464;48.112;11.530;2022-08-21T08:29:57;5.68;;;4.30;;
35364;SDS011;21464;48.112;11.530;2022-08-21T08:32:23;4.35;;;3.97;;
35364;SDS011;21464;48.112;11.530;2022-08-21T08:34:49;5.30;;;4.90;;
35364;SDS011;21464;48.112;11.530;2022-08-21T08:37:17;4.65;;;4.25;;
35364;SDS011;21464;48.112;11.530;2022-08-21T08:39:44;5.20;;;4.80;;
35364;SDS011;21464;48.112;11.530;2022-08-21T08:42:14;4.85;;;4.45;;
35364;SDS011;21464;48.112;11.530;2022-08-21T08:44:43;5.10;;;4.60;;
35364;SDS011;21464;48.112;11.530;2022-08-21T08:47:11;4.60;;;4.20;;
35364;SDS011;21464;48.112;11.530;2022-08-21T08:49:52;6.57;;;4.72;;
35364;SDS011;21464;48.112;11.530;2022-08-21T08:55:01;4.80;;;4.40;;
35364;SDS011;21464;48.112;11.530;2022-08-21T08:57:33;4.90;;;4.50;;
35364;SDS011;21464;48.112;11.530;2022-08-21T09:00:00;5.22;;;4.80;;
35364;SDS011;21464;48.112;11.530;2022-08-21T09:02:32;4.55;;;4.15;;
35364;SDS011;21464;48.112;11.530;2022-08-21T09:04:59;5.35;;;4.50;;
35364;SDS011;21464;48.112;11.530;2022-08-21T09:10:20;5.07;;;4.60;;
35364;SDS011;21464;48.112;11.530;2022-08-21T09:13:10;4.60;;;4.18;;
35364;SDS011;21464;48.112;11.530;2022-08-21T09:18:27;4.80;;;4.40;;
35364;SDS011;21464;48.112;11.530;2022-08-21T09:27:03;5.15;;;4.50;;
35364;SDS011;21464;48.112;11.530;2022-08-21T09:29:35;6.97;;;5.20;;
35364;SDS011;21464;48.112;11.530;2022-08-21T09:32:50;5.05;;;4.55;;
35364;SDS011;21464;48.112;11.530;2022-08-21T09:35:16;4.72;;;4.32;;
35364;SDS011;21464;48.112;11.530;2022-08-21T09:37:47;4.75;;;4.35;;
35364;SDS011;21464;48.112;11.530;2022-08-21T09:40:27;4.93;;;4.45;;
35364;SDS011;21464;48.112;11.530;2022-08-21T09:43:05;4.75;;;4.28;;
35364;SDS011;21464;48.112;11.530;2022-08-21T09:45:36;4.70;;;4.30;;
35364;SDS011;21464;48.112;11.530;2022-08-21T09:48:08;5.30;;;4.20;;
35364;SDS011;21464;48.112;11.530;2022-08-21T09:50:34;4.38;;;3.97;;
35364;SDS011;21464;48.112;11.530;2022-08-21T09:53:00;4.47;;;4.07;;
35364;SDS011;21464;48.112;11.530;2022-08-21T09:55:32;4.63;;;3.97;;
35364;SDS011;21464;48.112;11.530;2022-08-21T09:58:19;4.80;;;4.28;;
35364;SDS011;21464;48.112;11.530;2022-08-21T10:00:47;4.45;;;3.88;;
35364;SDS011;21464;48.112;11.530;2022-08-21T10:03:23;4.10;;;3.80;;
35364;SDS011;21464;48.112;11.530;2022-08-21T10:06:00;4.10;;;3.80;;
35364;SDS011;21464;48.112;11.530;2022-08-21T10:08:34;4.10;;;3.80;;
35364;SDS011;21464;48.112;11.530;2022-08-21T10:24:01;4.95;;;3.47;;
35364;SDS011;21464;48.112;11.530;2022-08-21T10:26:45;3.80;;;3.33;;
35364;SDS011;21464;48.112;11.530;2022-08-21T10:34:35;4.65;;;3.30;;
35364;SDS011;21464;48.112;11.530;2022-08-21T10:40:09;4.00;;;3.60;;
35364;SDS011;21464;48.112;11.530;2022-08-21T10:42:47;3.38;;;3.10;;
35364;SDS011;21464;48.112;11.530;2022-08-21T10:47:54;3.60;;;3.30;;
35364;SDS011;21464;48.112;11.530;2022-08-21T10:55:22;3.60;;;3.30;;
35364;SDS011;21464;48.112;11.530;2022-08-21T10:57:56;3.67;;;3.38;;
35364;SDS011;21464;48.112;11.530;2022-08-21T11:00:29;3.80;;;3.50;;
35364;SDS011;21464;48.112;11.530;2022-08-21T11:10:40;4.00;;;3.58;;
35364;SDS011;21464;48.112;11.530;2022-08-21T11:13:24;4.00;;;3.63;;
35364;SDS011;21464;48.112;11.530;2022-08-21T11:18:47;3.85;;;3.55;;
35364;SDS011;21464;48.112;11.530;2022-08-21T11:21:27;3.35;;;3.15;;
35364;SDS011;21464;48.112;11.530;2022-08-21T11:26:45;3.72;;;3.42;;
35364;SDS011;21464;48.112;11.530;2022-08-21T11:29:17;3.55;;;3.30;;
35364;SDS011;21464;48.112;11.530;2022-08-21T11:37:15;3.78;;;3.47;;
35364;SDS011;21464;48.112;11.530;2022-08-21T11:47:53;3.58;;;3.28;;
35364;SDS011;21464;48.112;11.530;2022-08-21T11:50:29;3.58;;;3.10;;
35364;SDS011;21464;48.112;11.530;2022-08-21T11:53:17;3.33;;;2.83;;
35364;SDS011;21464;48.112;11.530;2022-08-21T11:58:26;3.25;;;3.00;;
35364;SDS011;21464;48.112;11.530;2022-08-21T12:00:59;2.90;;;2.70;;
35364;SDS011;21464;48.112;11.530;2022-08-21T12:03:31;3.92;;;3.63;;
35364;SDS011;21464;48.112;11.530;2022-08-21T12:06:07;6.32;;;4.47;;
35364;SDS011;21464;48.112;11.530;2022-08-21T12:08:40;5.32;;;4.00;;
35364;SDS011;21464;48.112;11.530;2022-08-21T12:11:21;3.58;;;3.25;;
35364;SDS011;21464;48.112;11.530;2022-08-21T12:16:29;2.80;;;2.60;;
35364;SDS011;21464;48.112;11.530;2022-08-21T12:24:32;3.83;;;3.30;;
35364;SDS011;21464;48.112;11.530;2022-08-21T12:29:45;4.18;;;3.17;;
35364;SDS011;21464;48.112;11.530;2022-08-21T12:34:50;3.30;;;3.10;;
35364;SDS011;21464;48.112;11.530;2022-08-21T12:37:34;2.47;;;2.35;;
35364;SDS011;21464;48.112;11.530;2022-08-21T12:40:04;3.47;;;2.80;;
35364;SDS011;21464;48.112;11.530;2022-08-21T12:42:38;2.60;;;2.40;;
35364;SDS011;21464;48.112;11.530;2022-08-21T12:53:04;2.85;;;2.65;;
35364;SDS011;21464;48.112;11.530;2022-08-21T12:55:34;2.50;;;2.28;;
35364;SDS011;21464;48.112;11.530;2022-08-21T12:58:00;2.30;;;2.20;;
35364;SDS011;21464;48.112;11.530;2022-08-21T13:00:28;2.22;;;2.00;;
35364;SDS011;21464;48.112;11.530;2022-08-21T13:02:55;2.30;;;2.08;;
35364;SDS011;21464;48.112;11.530;2022-08-21T13:05:33;3.67;;;2.28;;
35364;SDS011;21464;48.112;11.530;2022-08-21T13:08:04;2.50;;;2.30;;
35364;SDS011;21464;48.112;11.530;2022-08-21T13:10:32;2.20;;;2.10;;
35364;SDS011;21464;48.112;11.530;2022-08-21T13:13:00;3.28;;;2.78;;
35364;SDS011;21464;48.112;11.530;2022-08-21T13:15:30;2.20;;;2.00;;
35364;SDS011;21464;48.112;11.530;2022-08-21T13:17:58;2.33;;;1.88;;
35364;SDS011;21464;48.112;11.530;2022-08-21T13:20:29;2.40;;;2.20;;
35364;SDS011;21464;48.112;11.530;2022-08-21T13:23:06;2.72;;;1.98;;
35364;SDS011;21464;48.112;11.530;2022-08-21T13:25:35;2.40;;;2.20;;
35364;SDS011;21464;48.112;11.530;2022-08-21T13:28:08;2.13;;;1.88;;
35364;SDS011;21464;48.112;11.530;2022-08-21T13:30:44;3.35;;;2.00;;
35364;SDS011;21464;48.112;11.530;2022-08-21T13:33:13;2.83;;;1.92;;
35364;SDS011;21464;48.112;11.530;2022-08-21T13:38:24;2.28;;;2.17;;
35364;SDS011;21464;48.112;11.530;2022-08-21T13:41:02;4.03;;;2.20;;
35364;SDS011;21464;48.112;11.530;2022-08-21T13:43:59;2.63;;;2.30;;
35364;SDS011;21464;48.112;11.530;2022-08-21T13:46:33;2.70;;;2.50;;
35364;SDS011;21464;48.112;11.530;2022-08-21T13:49:01;3.35;;;3.05;;
35364;SDS011;21464;48.112;11.530;2022-08-21T13:51:29;3.25;;;2.60;;
35364;SDS011;21464;48.112;11.530;2022-08-21T13:53:57;2.63;;;2.42;;
35364;SDS011;21464;48.112;11.530;2022-08-21T13:56:28;2.30;;;2.20;;
35364;SDS011;21464;48.112;11.530;2022-08-21T13:58:55;3.25;;;2.33;;
35364;SDS011;21464;48.112;11.530;2022-08-21T14:01:25;2.80;;;2.55;;
35364;SDS011;21464;48.112;11.530;2022-08-21T14:03:56;2.33;;;2.20;;
35364;SDS011;21464;48.112;11.530;2022-08-21T14:06:45;2.40;;;2.20;;
35364;SDS011;21464;48.112;11.530;2022-08-21T14:09:13;2.70;;;2.50;;
35364;SDS011;21464;48.112;11.530;2022-08-21T14:11:45;2.15;;;2.05;;
35364;SDS011;21464;48.112;11.530;2022-08-21T14:16:55;3.00;;;2.45;;
35364;SDS011;21464;48.112;11.530;2022-08-21T14:19:44;2.30;;;2.10;;
35364;SDS011;21464;48.112;11.530;2022-08-21T14:25:04;2.40;;;2.10;;
35364;SDS011;21464;48.112;11.530;2022-08-21T14:27:42;2.92;;;2.72;;
35364;SDS011;21464;48.112;11.530;2022-08-21T14:30:12;2.53;;;2.33;;
35364;SDS011;21464;48.112;11.530;2022-08-21T14:32:46;3.25;;;2.47;;
35364;SDS011;21464;48.112;11.530;2022-08-21T14:35:12;2.35;;;2.15;;
35364;SDS011;21464;48.112;11.530;2022-08-21T14:37:42;3.13;;;2.25;;
35364;SDS011;21464;48.112;11.530;2022-08-21T14:40:12;2.53;;;2.13;;
35364;SDS011;21464;48.112;11.530;2022-08-21T14:42:39;3.30;;;2.35;;
35364;SDS011;21464;48.112;11.530;2022-08-21T14:45:13;2.47;;;2.33;;
35364;SDS011;21464;48.112;11.530;2022-08-21T14:47:41;3.10;;;2.83;;
35364;SDS011;21464;48.112;11.530;2022-08-21T14:50:09;2.60;;;2.40;;
35364;SDS011;21464;48.112;11.530;2022-08-21T14:52:36;2.63;;;2.25;;
35364;SDS011;21464;48.112;11.530;2022-08-21T14:55:03;2.72;;;2.45;;
35364;SDS011;21464;48.112;11.530;2022-08-21T14:57:32;2.30;;;2.20;;
35364;SDS011;21464;48.112;11.530;2022-08-21T14:59:59;3.05;;;2.45;;
35364;SDS011;21464;48.112;11.530;2022-08-21T15:02:26;2.95;;;2.58;;
35364;SDS011;21464;48.112;11.530;2022-08-21T15:04:52;3.78;;;2.47;;
35364;SDS011;21464;48.112;11.530;2022-08-21T15:07:18;2.80;;;2.45;;
35364;SDS011;21464;48.112;11.530;2022-08-21T15:09:44;3.25;;;2.92;;
35364;SDS011;21464;48.112;11.530;2022-08-21T15:12:11;2.97;;;2.72;;
35364;SDS011;21464;48.112;11.530;2022-08-21T15:14:39;3.28;;;2.70;;
35364;SDS011;21464;48.112;11.530;2022-08-21T15:17:06;2.95;;;2.50;;
35364;SDS011;21464;48.112;11.530;2022-08-21T15:19:33;2.80;;;2.60;;
35364;SDS011;21464;48.112;11.530;2022-08-21T15:21:59;3.00;;;2.70;;
35364;SDS011;21464;48.112;11.530;2022-08-21T15:24:26;2.75;;;2.55;;
35364;SDS011;21464;48.112;11.530;2022-08-21T15:26:52;3.28;;;2.75;;
35364;SDS011;21464;48.112;11.530;2022-08-21T15:29:20;3.10;;;2.80;;
35364;SDS011;21464;48.112;11.530;2022-08-21T15:31:56;4.70;;;2.95;;
35364;SDS011;21464;48.112;11.530;2022-08-21T15:34:26;3.22;;;2.70;;
35364;SDS011;21464;48.112;11.530;2022-08-21T15:36:54;3.30;;;2.83;;
35364;SDS011;21464;48.112;11.530;2022-08-21T15:39:21;4.03;;;3.20;;
35364;SDS011;21464;48.112;11.530;2022-08-21T15:41:48;2.95;;;2.65;;
35364;SDS011;21464;48.112;11.530;2022-08-21T15:44:14;3.60;;;3.10;;
35364;SDS011;21464;48.112;11.530;2022-08-21T15:46:41;3.97;;;2.72;;
35364;SDS011;21464;48.112;11.530;2022-08-21T15:49:07;3.42;;;3.00;;
35364;SDS011;21464;48.112;11.530;2022-08-21T15:51:34;3.28;;;3.03;;
35364;SDS011;21464;48.112;11.530;2022-08-21T15:54:00;3.58;;;2.70;;
35364;SDS011;21464;48.112;11.530;2022-08-21T15:56:28;2.88;;;2.50;;
35364;SDS011;21464;48.112;11.530;2022-08-21T15:59:08;2.70;;;2.50;;
35364;SDS011;21464;48.112;11.530;2022-08-21T16:01:39;3.00;;;2.28;;
35364;SDS011;21464;48.112;11.530;2022-08-21T16:04:06;3.22;;;2.45;;
35364;SDS011;21464;48.112;11.530;2022-08-21T16:06:32;3.17;;;2.88;;
35364;SDS011;21464;48.112;11.530;2022-08-21T16:08:59;2.85;;;2.65;;
35364;SDS011;21464;48.112;11.530;2022-08-21T16:11:26;3.33;;;2.50;;
35364;SDS011;21464;48.112;11.530;2022-08-21T16:13:52;3.72;;;3.05;;
35364;SDS011;21464;48.112;11.530;2022-08-21T16:16:20;2.97;;;2.67;;
35364;SDS011;21464;48.112;11.530;2022-08-21T16:18:48;3.00;;;2.40;;
35364;SDS011;21464;48.112;11.530;2022-08-21T16:21:15;3.20;;;2.90;;
35364;SDS011;21464;48.112;11.530;2022-08-21T16:23:42;3.67;;;2.65;;
35364;SDS011;21464;48.112;11.530;2022-08-21T16:26:09;2.85;;;2.60;;
35364;SDS011;21464;48.112;11.530;2022-08-21T16:28:38;3.90;;;2.88;;
35364;SDS011;21464;48.112;11.530;2022-08-21T16:31:05;3.35;;;2.70;;